createdAt,value
2018-04-13T00:00:04.009Z,69.60
2018-04-13T00:01:04.011Z,67.80
2018-04-13T00:02:04.021Z,70.60
2018-04-13T00:03:04.027Z,71.00
2018-04-13T00:04:04.027Z,73.90
2018-04-13T00:05:04.036Z,68.20
2018-04-13T00:06:04.027Z,68.60
2018-04-13T00:07:04.600Z,67.50
2018-04-13T00:08:04.032Z,67.30
2018-04-13T00:09:04.044Z,67.80
2018-04-13T00:10:04.038Z,67.80
2018-04-13T00:11:04.052Z,68.90
2018-04-13T00:12:04.050Z,66.60
2018-04-13T00:13:04.057Z,68.20
2018-04-13T00:14:04.057Z,64.70
2018-04-13T00:15:04.066Z,66.50
2018-04-13T00:16:04.061Z,69.10
2018-04-13T00:17:04.072Z,68.70
2018-04-13T00:18:04.075Z,66.70
2018-04-13T00:19:04.075Z,70.00
2018-04-13T00:20:04.080Z,67.10
2018-04-13T00:21:04.088Z,67.30
2018-04-13T00:22:04.091Z,67.10
2018-04-13T00:23:04.090Z,65.70
2018-04-13T00:24:04.097Z,71.00
2018-04-13T00:25:04.104Z,67.40
2018-04-13T00:26:04.121Z,67.50
2018-04-13T00:27:04.106Z,70.00
2018-04-13T00:28:04.106Z,67.70
2018-04-13T00:29:04.126Z,67.20
2018-04-13T00:30:04.134Z,67.90
2018-04-13T00:31:04.122Z,67.50
2018-04-13T00:32:04.131Z,68.20
2018-04-13T00:33:04.140Z,69.20
2018-04-13T00:34:04.137Z,70.40
2018-04-13T00:35:04.148Z,68.00
2018-04-13T00:36:04.142Z,70.10
2018-04-13T00:37:04.154Z,67.80
2018-04-13T00:38:04.170Z,73.90
2018-04-13T00:39:04.149Z,79.30
2018-04-13T00:40:04.157Z,74.30
2018-04-13T00:41:04.157Z,79.40
2018-04-13T00:42:04.159Z,84.20
2018-04-13T00:43:04.172Z,81.50
2018-04-13T00:44:04.194Z,81.90
2018-04-13T00:45:04.198Z,76.00
2018-04-13T00:46:04.182Z,77.10
2018-04-13T00:47:04.177Z,78.90
2018-04-13T00:48:04.179Z,76.00
2018-04-13T00:49:04.191Z,76.90
2018-04-13T00:50:04.205Z,78.50
2018-04-13T00:51:04.192Z,77.90
2018-04-13T00:52:04.201Z,72.60
2018-04-13T00:53:04.197Z,74.00
2018-04-13T00:54:04.209Z,72.10
2018-04-13T00:55:04.210Z,71.50
2018-04-13T00:56:04.214Z,71.70
2018-04-13T00:57:04.219Z,70.50
2018-04-13T00:58:04.223Z,71.40
2018-04-13T00:59:04.229Z,73.00
2018-04-13T01:00:04.229Z,70.30
2018-04-13T01:01:04.237Z,71.50
2018-04-13T01:02:04.235Z,73.00
2018-04-13T01:03:04.236Z,72.10
2018-04-13T01:04:04.249Z,72.50
2018-04-13T01:05:04.253Z,71.20
2018-04-13T01:06:04.248Z,70.10
2018-04-13T01:07:04.257Z,68.40
2018-04-13T01:08:04.252Z,70.90
2018-04-13T01:09:04.264Z,71.20
2018-04-13T01:10:04.259Z,71.60
2018-04-13T01:11:04.304Z,69.00
2018-04-13T01:12:04.265Z,69.70
2018-04-13T01:13:04.277Z,69.80
2018-04-13T01:14:04.277Z,74.00
2018-04-13T01:15:04.280Z,73.80
2018-04-13T01:16:04.283Z,71.70
2018-04-13T01:17:04.288Z,69.90
2018-04-13T01:18:04.293Z,70.40
2018-04-13T01:19:04.295Z,72.40
2018-04-13T01:20:04.297Z,72.30
2018-04-13T01:21:04.307Z,69.50
2018-04-13T01:22:04.309Z,73.50
2018-04-13T01:23:04.312Z,69.70
2018-04-13T01:24:04.315Z,70.60
2018-04-13T01:25:04.314Z,70.60
2018-04-13T01:26:04.323Z,71.30
2018-04-13T01:27:04.323Z,73.40
2018-04-13T01:28:04.323Z,73.10
2018-04-13T01:29:04.331Z,72.40
2018-04-13T01:30:04.338Z,71.20
2018-04-13T01:31:04.331Z,75.20
2018-04-13T01:32:04.337Z,75.80
2018-04-13T01:33:04.349Z,73.80
2018-04-13T01:34:04.351Z,70.10
2018-04-13T01:35:04.357Z,76.50
2018-04-13T01:36:04.359Z,70.60
2018-04-13T01:37:04.357Z,77.30
2018-04-13T01:38:04.369Z,75.70
2018-04-13T01:39:04.369Z,72.10
2018-04-13T01:40:04.362Z,72.30
2018-04-13T01:41:04.376Z,72.60
2018-04-13T01:42:04.371Z,70.60
2018-04-13T01:43:04.385Z,72.70
2018-04-13T01:44:04.384Z,75.20
2018-04-13T01:45:04.385Z,73.10
2018-04-13T01:46:04.385Z,71.20
2018-04-13T01:47:04.397Z,74.90
2018-04-13T01:48:04.392Z,72.00
2018-04-13T01:49:04.406Z,74.10
2018-04-13T01:50:04.407Z,75.80
2018-04-13T01:51:04.408Z,73.50
2018-04-13T01:52:04.411Z,72.80
2018-04-13T01:53:04.437Z,77.90
2018-04-13T01:54:04.425Z,73.70
2018-04-13T01:55:04.426Z,72.80
2018-04-13T01:56:04.422Z,71.80
2018-04-13T01:57:04.429Z,69.90
2018-04-13T01:58:04.431Z,70.60
2018-04-13T01:59:04.442Z,70.20
2018-04-13T02:00:04.435Z,72.00
2018-04-13T02:01:04.444Z,74.30
2018-04-13T02:02:04.443Z,70.50
2018-04-13T02:03:04.448Z,72.10
2018-04-13T02:04:04.454Z,69.90
2018-04-13T02:05:04.456Z,71.00
2018-04-13T02:06:04.471Z,70.80
2018-04-13T02:07:04.462Z,72.10
2018-04-13T02:08:04.467Z,74.20
2018-04-13T02:09:04.467Z,71.30
2018-04-13T02:10:04.472Z,74.00
2018-04-13T02:11:04.482Z,71.90
2018-04-13T02:12:04.491Z,72.20
2018-04-13T02:13:04.478Z,73.50
2018-04-13T02:14:04.489Z,72.00
2018-04-13T02:15:04.491Z,74.00
2018-04-13T02:16:04.494Z,73.30
2018-04-13T02:17:04.497Z,70.00
2018-04-13T02:18:04.507Z,69.20
2018-04-13T02:19:04.497Z,69.30
2018-04-13T02:20:04.502Z,72.20
2018-04-13T02:21:04.556Z,70.60
2018-04-13T02:22:04.514Z,70.40
2018-04-13T02:23:04.514Z,71.20
2018-04-13T02:24:04.526Z,70.40
2018-04-13T02:25:04.520Z,73.90
2018-04-13T02:26:04.524Z,73.00
2018-04-13T02:27:04.528Z,69.50
2018-04-13T02:28:04.533Z,79.20
2018-04-13T02:29:04.539Z,82.80
2018-04-13T02:30:04.543Z,80.50
2018-04-13T02:31:04.548Z,89.10
2018-04-13T02:32:04.545Z,76.80
2018-04-13T02:33:04.554Z,78.50
2018-04-13T02:34:04.549Z,87.90
2018-04-13T02:35:04.564Z,82.60
2018-04-13T02:36:04.571Z,85.60
2018-04-13T02:37:04.622Z,79.10
2018-04-13T02:38:04.563Z,90.20
2018-04-13T02:39:04.575Z,82.20
2018-04-13T02:40:04.569Z,84.30
2018-04-13T02:41:04.578Z,83.50
2018-04-13T02:42:04.573Z,80.60
2018-04-13T02:43:04.578Z,83.20
2018-04-13T02:44:04.581Z,82.10
2018-04-13T02:45:04.589Z,86.60
2018-04-13T02:46:04.590Z,89.80
2018-04-13T02:47:04.593Z,83.80
2018-04-13T02:48:04.597Z,85.00
2018-04-13T02:49:04.606Z,86.00
2018-04-13T02:50:04.607Z,78.70
2018-04-13T02:51:04.606Z,75.50
2018-04-13T02:52:04.602Z,77.80
2018-04-13T02:53:04.619Z,73.80
2018-04-13T02:54:04.615Z,74.00
2018-04-13T02:55:04.617Z,75.20
2018-04-13T02:56:04.624Z,74.40
2018-04-13T02:57:04.621Z,77.60
2018-04-13T02:58:04.626Z,77.90
2018-04-13T02:59:04.625Z,69.70
2018-04-13T03:00:04.633Z,71.40
2018-04-13T03:01:04.641Z,74.30
2018-04-13T03:02:04.651Z,70.30
2018-04-13T03:03:04.646Z,76.70
2018-04-13T03:04:04.638Z,72.90
2018-04-13T03:05:04.651Z,77.50
2018-04-13T03:06:04.651Z,70.90
2018-04-13T03:07:04.650Z,70.80
2018-04-13T03:08:04.666Z,75.20
2018-04-13T03:09:04.659Z,73.70
2018-04-13T03:10:04.666Z,82.20
2018-04-13T03:11:04.661Z,76.10
2018-04-13T03:12:04.683Z,76.50
2018-04-13T03:13:04.761Z,72.30
2018-04-13T03:14:04.689Z,70.30
2018-04-13T03:15:04.688Z,72.00
2018-04-13T03:16:04.679Z,71.40
2018-04-13T03:17:04.680Z,70.80
2018-04-13T03:18:04.694Z,84.10
2018-04-13T03:19:04.689Z,77.50
2018-04-13T03:20:04.693Z,83.00
2018-04-13T03:21:04.697Z,92.90
2018-04-13T03:22:04.704Z,91.30
2018-04-13T03:23:04.703Z,88.20
2018-04-13T03:24:04.702Z,85.30
2018-04-13T03:25:04.723Z,90.00
2018-04-13T03:26:04.714Z,85.90
2018-04-13T03:27:04.714Z,88.00
2018-04-13T03:28:04.719Z,87.50
2018-04-13T03:29:04.721Z,89.20
2018-04-13T03:30:04.725Z,83.90
2018-04-13T03:31:04.720Z,86.70
2018-04-13T03:32:04.726Z,78.40
2018-04-13T03:33:04.734Z,89.90
2018-04-13T03:34:04.730Z,85.30
2018-04-13T03:35:04.741Z,85.40
2018-04-13T03:36:04.740Z,82.60
2018-04-13T03:37:04.747Z,89.10
2018-04-13T03:38:04.741Z,89.80
2018-04-13T03:39:04.751Z,95.50
2018-04-13T03:40:04.750Z,78.40
2018-04-13T03:41:04.755Z,84.70
2018-04-13T03:42:04.760Z,86.80
2018-04-13T03:43:04.761Z,92.40
2018-04-13T03:44:04.766Z,92.50
2018-04-13T03:45:04.773Z,93.20
2018-04-13T03:46:04.774Z,82.90
2018-04-13T03:47:04.785Z,86.60
2018-04-13T03:48:04.775Z,88.70
2018-04-13T03:49:04.779Z,83.50
2018-04-13T03:50:04.787Z,86.60
2018-04-13T03:51:04.788Z,87.60
2018-04-13T03:52:04.799Z,84.40
2018-04-13T03:53:04.796Z,91.20
2018-04-13T03:54:04.818Z,89.80
2018-04-13T03:55:04.791Z,79.80
2018-04-13T03:56:04.796Z,79.50
2018-04-13T03:57:04.807Z,80.20
2018-04-13T03:58:04.810Z,85.60
2018-04-13T03:59:04.805Z,81.10
2018-04-13T04:00:04.809Z,81.80
2018-04-13T04:01:04.814Z,84.60
2018-04-13T04:02:04.868Z,93.90
2018-04-13T04:03:04.820Z,84.90
2018-04-13T04:04:04.819Z,84.60
2018-04-13T04:05:04.824Z,85.90
2018-04-13T04:06:04.828Z,86.50
2018-04-13T04:07:04.834Z,86.10
2018-04-13T04:08:04.830Z,81.50
2018-04-13T04:09:04.848Z,81.00
2018-04-13T04:10:04.842Z,80.30
2018-04-13T04:11:04.865Z,85.40
2018-04-13T04:12:04.846Z,81.40
2018-04-13T04:13:04.852Z,82.40
2018-04-13T04:14:04.867Z,81.80
2018-04-13T04:15:04.866Z,84.40
2018-04-13T04:16:04.866Z,86.90
2018-04-13T04:17:04.874Z,92.60
2018-04-13T04:18:04.883Z,90.20
2018-04-13T04:19:04.882Z,94.90
2018-04-13T04:20:04.868Z,94.70
2018-04-13T04:21:04.873Z,83.50
2018-04-13T04:22:04.875Z,89.80
2018-04-13T04:23:04.889Z,90.80
2018-04-13T04:24:04.897Z,91.40
2018-04-13T04:25:04.882Z,89.90
2018-04-13T04:26:04.887Z,90.90
2018-04-13T04:27:04.892Z,94.00
2018-04-13T04:28:04.889Z,92.70
2018-04-13T04:29:04.900Z,99.10
2018-04-13T04:30:04.905Z,103.10
2018-04-13T04:31:04.901Z,99.20
2018-04-13T04:32:04.910Z,96.30
2018-04-13T04:33:04.908Z,94.10
2018-04-13T04:34:04.916Z,98.40
2018-04-13T04:35:04.919Z,92.60
2018-04-13T04:36:04.913Z,93.20
2018-04-13T04:37:04.927Z,95.00
2018-04-13T04:38:04.932Z,96.50
2018-04-13T04:39:04.942Z,92.30
2018-04-13T04:40:04.928Z,88.40
2018-04-13T04:41:04.941Z,95.30
2018-04-13T04:42:04.938Z,93.40
2018-04-13T04:43:04.948Z,87.40
2018-04-13T04:44:04.953Z,93.30
2018-04-13T04:45:04.950Z,91.90
2018-04-13T04:46:04.952Z,92.40
2018-04-13T04:47:04.951Z,92.00
2018-04-13T04:48:04.959Z,90.60
2018-04-13T04:49:04.968Z,95.60
2018-04-13T04:50:04.956Z,89.20
2018-04-13T04:51:04.966Z,91.00
2018-04-13T04:52:04.965Z,92.30
2018-04-13T04:53:04.972Z,93.10
2018-04-13T04:54:04.971Z,90.90
2018-04-13T04:55:04.978Z,93.10
2018-04-13T04:56:04.978Z,96.50
2018-04-13T04:57:04.989Z,92.10
2018-04-13T04:58:04.984Z,91.50
2018-04-13T04:59:04.991Z,94.80
2018-04-13T05:00:04.989Z,100.00
2018-04-13T05:01:05.003Z,96.60
2018-04-13T05:02:04.993Z,101.50
2018-04-13T05:03:05.007Z,95.30
2018-04-13T05:04:05.017Z,97.30
2018-04-13T05:05:05.015Z,100.80
2018-04-13T05:06:05.019Z,108.10
2018-04-13T05:07:05.015Z,102.60
2018-04-13T05:08:05.022Z,97.90
2018-04-13T05:09:05.025Z,98.90
2018-04-13T05:10:05.027Z,104.10
2018-04-13T05:11:05.038Z,104.90
2018-04-13T05:12:05.028Z,109.80
2018-04-13T05:13:05.044Z,102.60
2018-04-13T05:14:05.067Z,94.40
2018-04-13T05:15:07.044Z,105.50
2018-04-13T05:16:05.713Z,98.40
2018-04-13T05:17:07.693Z,95.70
2018-04-13T05:18:07.274Z,99.40
2018-04-13T05:19:05.046Z,96.80
2018-04-13T05:20:05.054Z,98.50
2018-04-13T05:21:05.056Z,99.50
2018-04-13T05:22:05.059Z,103.60
2018-04-13T05:23:05.067Z,106.00
2018-04-13T05:24:05.063Z,104.30
2018-04-13T05:25:05.076Z,104.00
2018-04-13T05:26:05.076Z,98.30
2018-04-13T05:27:05.077Z,101.80
2018-04-13T05:28:05.082Z,98.40
2018-04-13T05:29:05.078Z,103.10
2018-04-13T05:30:05.109Z,104.70
2018-04-13T05:31:05.091Z,101.70
2018-04-13T05:32:05.088Z,109.10
2018-04-13T05:33:05.101Z,101.20
2018-04-13T05:34:05.102Z,99.90
2018-04-13T05:35:05.136Z,105.30
2018-04-13T05:36:05.109Z,99.50
2018-04-13T05:37:05.123Z,97.90
2018-04-13T05:38:05.107Z,104.40
2018-04-13T05:39:05.112Z,105.40
2018-04-13T05:40:05.165Z,101.80
2018-04-13T05:41:05.118Z,105.80
2018-04-13T05:42:05.133Z,99.10
2018-04-13T05:43:05.167Z,105.20
2018-04-13T05:44:05.124Z,114.50
2018-04-13T05:45:05.137Z,107.50
2018-04-13T05:46:05.191Z,111.60
2018-04-13T05:47:05.144Z,106.10
2018-04-13T05:48:05.146Z,99.70
2018-04-13T05:49:05.143Z,99.50
2018-04-13T05:50:05.153Z,97.60
2018-04-13T05:51:05.149Z,99.30
2018-04-13T05:52:05.156Z,96.90
2018-04-13T05:53:05.166Z,97.00
2018-04-13T05:54:05.162Z,88.40
2018-04-13T05:55:05.180Z,87.50
2018-04-13T05:56:05.171Z,86.30
2018-04-13T05:57:05.174Z,90.80
2018-04-13T05:58:05.176Z,87.60
2018-04-13T05:59:05.181Z,82.80
2018-04-13T06:00:05.182Z,92.60
2018-04-13T06:01:05.192Z,93.40
2018-04-13T06:02:05.193Z,94.00
2018-04-13T06:03:05.202Z,91.20
2018-04-13T06:04:05.192Z,98.30
2018-04-13T06:05:05.210Z,92.60
2018-04-13T06:06:05.245Z,95.40
2018-04-13T06:07:05.211Z,95.50
2018-04-13T06:08:05.210Z,96.50
2018-04-13T06:09:05.220Z,100.30
2018-04-13T06:10:05.223Z,91.10
2018-04-13T06:11:05.217Z,92.20
2018-04-13T06:12:05.223Z,96.20
2018-04-13T06:13:05.236Z,94.60
2018-04-13T06:14:05.237Z,93.10
2018-04-13T06:15:05.234Z,92.10
2018-04-13T06:16:05.239Z,92.80
2018-04-13T06:17:05.249Z,88.50
2018-04-13T06:18:05.250Z,89.00
2018-04-13T06:19:05.250Z,88.40
2018-04-13T06:20:05.255Z,76.80
2018-04-13T06:21:05.262Z,84.20
2018-04-13T06:22:05.272Z,85.30
2018-04-13T06:23:05.274Z,79.70
2018-04-13T06:24:05.275Z,81.30
2018-04-13T06:25:05.281Z,84.50
2018-04-13T06:26:05.291Z,84.00
2018-04-13T06:27:05.281Z,89.50
2018-04-13T06:28:05.287Z,88.00
2018-04-13T06:29:05.315Z,91.20
2018-04-13T06:30:05.299Z,87.30
2018-04-13T06:31:05.300Z,86.00
2018-04-13T06:32:05.304Z,82.00
2018-04-13T06:33:05.309Z,81.50
2018-04-13T06:34:05.316Z,83.00
2018-04-13T06:35:05.332Z,87.20
2018-04-13T06:36:05.341Z,81.90
2018-04-13T06:37:05.327Z,80.80
2018-04-13T06:38:05.338Z,79.80
2018-04-13T06:39:05.344Z,77.20
2018-04-13T06:40:05.339Z,78.70
2018-04-13T06:41:05.359Z,79.20
2018-04-13T06:42:05.350Z,79.30
2018-04-13T06:43:05.352Z,86.20
2018-04-13T06:44:05.356Z,75.30
2018-04-13T06:45:05.364Z,77.80
2018-04-13T06:46:05.374Z,80.50
2018-04-13T06:47:05.369Z,72.90
2018-04-13T06:48:05.377Z,78.30
2018-04-13T06:49:05.378Z,69.00
2018-04-13T06:50:05.384Z,81.70
2018-04-13T06:51:05.392Z,76.60
2018-04-13T06:52:05.397Z,92.30
2018-04-13T06:53:05.396Z,80.50
2018-04-13T06:54:05.404Z,85.10
2018-04-13T06:55:05.410Z,79.10
2018-04-13T06:56:05.419Z,90.90
2018-04-13T06:57:05.416Z,80.70
2018-04-13T06:58:05.473Z,78.20
2018-04-13T06:59:05.419Z,78.10
2018-04-13T07:00:05.428Z,76.00
2018-04-13T07:01:05.436Z,76.80
2018-04-13T07:02:05.441Z,80.10
2018-04-13T07:03:05.442Z,76.10
2018-04-13T07:04:05.443Z,80.50
2018-04-13T07:05:05.452Z,74.50
2018-04-13T07:06:05.456Z,71.30
2018-04-13T07:07:05.462Z,69.30
2018-04-13T07:08:05.463Z,72.20
2018-04-13T07:09:05.465Z,73.60
2018-04-13T07:10:05.485Z,72.20
2018-04-13T07:11:05.476Z,69.70
2018-04-13T07:12:05.484Z,69.50
2018-04-13T07:13:05.491Z,70.50
2018-04-13T07:14:05.488Z,69.10
2018-04-13T07:15:05.505Z,65.50
2018-04-13T07:16:05.505Z,71.20
2018-04-13T07:17:05.524Z,72.70
2018-04-13T07:18:05.512Z,67.10
2018-04-13T07:19:05.521Z,63.20
2018-04-13T07:20:05.525Z,68.30
2018-04-13T07:21:05.532Z,63.90
2018-04-13T07:22:05.534Z,67.20
2018-04-13T07:23:05.547Z,61.40
2018-04-13T07:24:05.538Z,61.40
2018-04-13T07:25:05.556Z,66.70
2018-04-13T07:26:05.555Z,74.20
2018-04-13T07:27:06.838Z,67.00
2018-04-13T07:28:05.569Z,59.20
2018-04-13T07:29:05.575Z,62.20
2018-04-13T07:30:05.741Z,59.10
2018-04-13T07:31:05.584Z,60.00
2018-04-13T07:32:06.091Z,59.10
2018-04-13T07:33:05.603Z,58.30
2018-04-13T07:34:06.179Z,57.80
2018-04-13T07:35:05.610Z,57.60
2018-04-13T07:36:05.615Z,58.20
2018-04-13T07:37:05.626Z,60.00
2018-04-13T07:38:05.633Z,55.90
2018-04-13T07:39:05.638Z,57.10
2018-04-13T07:40:05.651Z,57.00
2018-04-13T07:41:05.652Z,56.90
2018-04-13T07:42:05.662Z,58.20
2018-04-13T07:43:05.665Z,60.80
2018-04-13T07:44:05.676Z,57.70
2018-04-13T07:45:05.732Z,56.90
2018-04-13T07:46:05.695Z,55.60
2018-04-13T07:47:05.698Z,57.10
2018-04-13T07:48:05.708Z,57.20
2018-04-13T07:49:05.717Z,56.80
2018-04-13T07:50:05.733Z,58.70
2018-04-13T07:51:05.725Z,58.10
2018-04-13T07:52:05.755Z,60.60
2018-04-13T07:53:05.989Z,63.40
2018-04-13T07:54:05.760Z,60.20
2018-04-13T07:55:05.846Z,59.00
2018-04-13T07:56:05.767Z,59.30
2018-04-13T07:57:05.793Z,59.00
2018-04-13T07:58:05.784Z,60.90
2018-04-13T07:59:05.803Z,64.90
2018-04-13T08:00:05.809Z,61.30
2018-04-13T08:01:06.094Z,61.50
2018-04-13T08:02:05.828Z,62.40
2018-04-13T08:03:05.821Z,60.60
2018-04-13T08:04:05.834Z,62.10
2018-04-13T08:05:05.841Z,60.50
2018-04-13T08:06:05.844Z,62.70
2018-04-13T08:07:05.853Z,62.10
2018-04-13T08:08:05.859Z,61.30
2018-04-13T08:09:05.869Z,62.30
2018-04-13T08:10:06.256Z,63.00
2018-04-13T08:11:05.885Z,60.60
2018-04-13T08:12:05.896Z,62.90
2018-04-13T08:13:05.911Z,64.50
2018-04-13T08:14:05.970Z,60.80
2018-04-13T08:15:06.281Z,62.60
2018-04-13T08:16:05.917Z,61.00
2018-04-13T08:17:05.928Z,60.70
2018-04-13T08:18:05.925Z,61.70
2018-04-13T08:19:05.944Z,61.50
2018-04-13T08:20:05.941Z,63.50
2018-04-13T08:21:05.952Z,62.10
2018-04-13T08:22:05.964Z,63.90
2018-04-13T08:23:05.967Z,62.90
2018-04-13T08:24:05.980Z,62.30
2018-04-13T08:25:05.983Z,63.80
2018-04-13T08:26:05.991Z,61.90
2018-04-13T08:27:05.995Z,65.60
2018-04-13T08:28:05.998Z,61.70
2018-04-13T08:29:06.012Z,63.90
2018-04-13T08:30:06.015Z,64.50
2018-04-13T08:31:06.019Z,62.60
2018-04-13T08:32:06.027Z,68.50
2018-04-13T08:33:06.034Z,65.30
2018-04-13T08:34:06.042Z,67.10
2018-04-13T08:35:06.067Z,63.70
2018-04-13T08:36:06.073Z,69.30
2018-04-13T08:37:06.066Z,63.30
2018-04-13T08:38:06.077Z,62.00
2018-04-13T08:39:06.088Z,63.70
2018-04-13T08:40:06.073Z,67.00
2018-04-13T08:41:06.094Z,64.50
2018-04-13T08:42:06.089Z,63.20
2018-04-13T08:43:06.105Z,66.60
2018-04-13T08:44:06.102Z,64.10
2018-04-13T08:45:06.118Z,63.90
2018-04-13T08:46:06.120Z,64.70
2018-04-13T08:47:06.135Z,66.10
2018-04-13T08:48:06.128Z,67.00
2018-04-13T08:49:06.258Z,64.90
2018-04-13T08:50:06.155Z,65.30
2018-04-13T08:51:06.155Z,63.80
2018-04-13T08:52:06.166Z,63.60
2018-04-13T08:53:06.178Z,63.10
2018-04-13T08:54:06.239Z,64.70
2018-04-13T08:55:06.175Z,64.40
2018-04-13T08:56:06.242Z,61.90
2018-04-13T08:57:06.319Z,64.70
2018-04-13T08:58:06.207Z,64.60
2018-04-13T08:59:06.226Z,64.90
2018-04-13T09:00:06.209Z,60.80
2018-04-13T09:01:06.234Z,65.80
2018-04-13T09:02:06.232Z,61.00
2018-04-13T09:03:06.230Z,70.20
2018-04-13T09:04:12.543Z,60.10
2018-04-13T09:05:06.266Z,59.70
2018-04-13T09:06:06.251Z,62.10
2018-04-13T09:07:06.267Z,59.30
2018-04-13T09:08:06.262Z,59.80
2018-04-13T09:09:06.276Z,59.80
2018-04-13T09:10:06.280Z,57.40
2018-04-13T09:11:06.281Z,56.20
2018-04-13T09:12:06.293Z,56.50
2018-04-13T09:13:06.312Z,54.50
2018-04-13T09:14:06.301Z,59.40
2018-04-13T09:15:06.309Z,54.80
2018-04-13T09:16:06.314Z,52.40
2018-04-13T09:17:06.323Z,51.40
2018-04-13T09:18:06.333Z,49.50
2018-04-13T09:19:06.330Z,53.40
2018-04-13T09:20:06.338Z,49.30
2018-04-13T09:21:06.352Z,47.90
2018-04-13T09:22:06.354Z,50.00
2018-04-13T09:23:06.369Z,48.60
2018-04-13T09:24:06.387Z,44.40
2018-04-13T09:25:06.375Z,44.20
2018-04-13T09:26:07.265Z,44.00
2018-04-13T09:27:06.392Z,43.30
2018-04-13T09:28:06.397Z,43.60
2018-04-13T09:29:06.409Z,41.40
2018-04-13T09:30:06.410Z,42.60
2018-04-13T09:31:06.417Z,38.40
2018-04-13T09:32:06.430Z,38.70
2018-04-13T09:33:06.459Z,37.60
2018-04-13T09:34:06.443Z,36.60
2018-04-13T09:35:06.443Z,36.00
2018-04-13T09:36:06.451Z,37.20
2018-04-13T09:37:06.467Z,37.80
2018-04-13T09:38:06.472Z,35.60
2018-04-13T09:39:06.480Z,36.50
2018-04-13T09:40:06.480Z,35.30
2018-04-13T09:41:06.496Z,34.90
2018-04-13T09:42:06.494Z,34.90
2018-04-13T09:43:06.510Z,36.80
2018-04-13T09:44:06.515Z,34.90
2018-04-13T09:45:06.526Z,37.20
2018-04-13T09:46:06.571Z,33.50
2018-04-13T09:47:06.548Z,34.00
2018-04-13T09:48:06.567Z,31.90
2018-04-13T09:49:06.566Z,32.50
2018-04-13T09:50:06.568Z,33.70
2018-04-13T09:51:06.573Z,36.30
2018-04-13T09:52:06.584Z,29.80
2018-04-13T09:53:06.595Z,30.10
2018-04-13T09:54:06.599Z,31.50
2018-04-13T09:55:06.611Z,29.10
2018-04-13T09:56:06.614Z,29.60
2018-04-13T09:57:06.625Z,28.70
2018-04-13T09:58:06.660Z,29.80
2018-04-13T09:59:06.641Z,30.40
2018-04-13T10:00:06.658Z,29.60
2018-04-13T10:01:06.655Z,30.10
2018-04-13T10:02:06.674Z,28.90
2018-04-13T10:03:06.680Z,29.50
2018-04-13T10:04:06.693Z,39.20
2018-04-13T10:05:06.700Z,31.10
2018-04-13T10:06:06.701Z,29.20
2018-04-13T10:07:06.718Z,31.80
2018-04-13T10:08:06.734Z,29.80
2018-04-13T10:09:06.729Z,28.50
2018-04-13T10:10:06.741Z,30.90
2018-04-13T10:11:06.754Z,36.60
2018-04-13T10:12:06.756Z,27.60
2018-04-13T10:13:06.775Z,28.60
2018-04-13T10:14:06.782Z,29.30
2018-04-13T10:15:06.788Z,24.40
2018-04-13T10:16:06.804Z,25.00
2018-04-13T10:17:06.812Z,24.70
2018-04-13T10:18:06.819Z,23.40
2018-04-13T10:19:06.830Z,24.30
2018-04-13T10:20:07.015Z,24.50
2018-04-13T10:21:06.844Z,24.50
2018-04-13T10:22:06.850Z,24.30
2018-04-13T10:23:06.862Z,24.10
2018-04-13T10:24:07.438Z,25.20
2018-04-13T10:25:06.888Z,26.00
2018-04-13T10:26:06.883Z,23.80
2018-04-13T10:27:06.900Z,24.80
2018-04-13T10:28:06.913Z,24.50
2018-04-13T10:29:06.909Z,27.30
2018-04-13T10:30:06.947Z,25.90
2018-04-13T10:31:06.926Z,25.30
2018-04-13T10:32:06.943Z,26.40
2018-04-13T10:33:06.955Z,25.40
2018-04-13T10:34:06.960Z,25.40
2018-04-13T10:35:06.974Z,25.40
2018-04-13T10:36:06.974Z,27.30
2018-04-13T10:37:07.018Z,28.60
2018-04-13T10:38:06.987Z,26.00
2018-04-13T10:39:07.040Z,27.40
2018-04-13T10:40:07.115Z,27.70
2018-04-13T10:41:07.037Z,25.50
2018-04-13T10:42:07.125Z,24.50
2018-04-13T10:43:07.055Z,27.80
2018-04-13T10:44:07.045Z,27.30
2018-04-13T10:45:07.088Z,27.60
2018-04-13T10:46:07.140Z,26.10
2018-04-13T10:47:07.117Z,26.00
2018-04-13T10:48:07.095Z,24.80
2018-04-13T10:49:07.183Z,22.60
2018-04-13T10:50:07.102Z,25.20
2018-04-13T10:51:07.403Z,23.60
2018-04-13T10:52:07.120Z,25.00
2018-04-13T10:53:07.125Z,25.20
2018-04-13T10:54:07.131Z,24.70
2018-04-13T10:55:07.150Z,24.20
2018-04-13T10:56:07.148Z,26.10
2018-04-13T10:57:07.185Z,24.00
2018-04-13T10:58:07.166Z,23.70
2018-04-13T10:59:07.182Z,22.80
2018-04-13T11:00:07.175Z,22.40
2018-04-13T11:01:07.218Z,22.00
2018-04-13T11:02:07.199Z,26.90
2018-04-13T11:03:07.216Z,40.10
2018-04-13T11:04:07.221Z,30.80
2018-04-13T11:05:07.226Z,31.50
2018-04-13T11:06:07.224Z,28.80
2018-04-13T11:07:07.281Z,31.80
2018-04-13T11:08:07.242Z,33.80
2018-04-13T11:09:07.267Z,40.50
2018-04-13T11:10:07.264Z,30.00
2018-04-13T11:11:07.274Z,30.20
2018-04-13T11:12:07.285Z,23.70
2018-04-13T11:13:07.288Z,21.70
2018-04-13T11:14:07.294Z,20.40
2018-04-13T11:15:07.298Z,21.70
2018-04-13T11:16:07.306Z,29.30
2018-04-13T11:17:07.320Z,31.10
2018-04-13T11:18:07.356Z,29.70
2018-04-13T11:19:07.344Z,26.20
2018-04-13T11:20:07.339Z,29.10
2018-04-13T11:21:07.349Z,21.90
2018-04-13T11:22:07.362Z,20.10
2018-04-13T11:23:07.357Z,23.20
2018-04-13T11:24:07.379Z,22.80
2018-04-13T11:25:07.388Z,18.90
2018-04-13T11:26:07.391Z,16.10
2018-04-13T11:27:07.402Z,21.70
2018-04-13T11:28:07.404Z,24.20
2018-04-13T11:29:07.414Z,25.10
2018-04-13T11:30:07.422Z,21.10
2018-04-13T11:31:07.423Z,18.10
2018-04-13T11:32:07.432Z,20.00
2018-04-13T11:33:07.443Z,23.70
2018-04-13T11:34:07.457Z,19.00
2018-04-13T11:35:07.662Z,21.20
2018-04-13T11:36:07.466Z,25.40
2018-04-13T11:37:07.475Z,19.00
2018-04-13T11:38:07.476Z,21.70
2018-04-13T11:39:07.484Z,22.60
2018-04-13T11:40:07.493Z,27.60
2018-04-13T11:41:07.504Z,22.30
2018-04-13T11:42:07.508Z,22.80
2018-04-13T11:43:07.519Z,18.60
2018-04-13T11:44:07.523Z,19.30
2018-04-13T11:45:07.538Z,17.30
2018-04-13T11:46:07.542Z,11.50
2018-04-13T11:47:07.547Z,12.60
2018-04-13T11:48:07.557Z,12.80
2018-04-13T11:49:07.566Z,17.60
2018-04-13T11:50:07.595Z,11.80
2018-04-13T11:51:07.575Z,14.30
2018-04-13T11:52:07.587Z,12.50
2018-04-13T11:53:07.597Z,11.20
2018-04-13T11:54:07.601Z,15.60
2018-04-13T11:55:07.611Z,12.00
2018-04-13T11:56:07.620Z,11.30
2018-04-13T11:57:07.625Z,12.30
2018-04-13T11:58:07.636Z,12.00
2018-04-13T11:59:07.644Z,14.20
2018-04-13T12:00:07.646Z,13.40
2018-04-13T12:01:07.660Z,12.60
2018-04-13T12:02:07.664Z,12.80
2018-04-13T12:03:07.670Z,12.30
2018-04-13T12:04:07.673Z,14.70
2018-04-13T12:05:07.689Z,14.80
2018-04-13T12:06:07.687Z,12.00
2018-04-13T12:07:07.703Z,16.50
2018-04-13T12:08:07.701Z,13.20
2018-04-13T12:09:07.711Z,15.20
2018-04-13T12:10:07.727Z,15.20
2018-04-13T12:11:07.724Z,12.90
2018-04-13T12:12:07.738Z,14.30
2018-04-13T12:13:07.735Z,13.20
2018-04-13T12:14:07.745Z,14.30
2018-04-13T12:15:07.749Z,13.30
2018-04-13T12:16:07.760Z,14.40
2018-04-13T12:17:07.773Z,13.30
2018-04-13T12:18:07.775Z,13.30
2018-04-13T12:19:07.781Z,13.70
2018-04-13T12:20:07.786Z,14.00
2018-04-13T12:21:07.796Z,14.10
2018-04-13T12:22:07.804Z,15.70
2018-04-13T12:23:07.840Z,13.40
2018-04-13T12:24:07.813Z,15.90
2018-04-13T12:25:07.816Z,13.50
2018-04-13T12:26:07.831Z,13.90
2018-04-13T12:27:07.832Z,15.70
2018-04-13T12:28:07.838Z,13.30
2018-04-13T12:29:07.883Z,17.40
2018-04-13T12:30:07.852Z,14.90
2018-04-13T12:31:07.872Z,16.10
2018-04-13T12:32:07.860Z,18.30
2018-04-13T12:33:07.869Z,15.70
2018-04-13T12:34:07.884Z,15.10
2018-04-13T12:35:07.880Z,15.80
2018-04-13T12:36:07.881Z,14.90
2018-04-13T12:37:07.896Z,17.40
2018-04-13T12:38:07.905Z,16.00
2018-04-13T12:39:07.901Z,17.60
2018-04-13T12:40:07.904Z,16.40
2018-04-13T12:41:07.920Z,17.20
2018-04-13T12:42:07.923Z,20.00
2018-04-13T12:43:07.929Z,19.20
2018-04-13T12:44:07.932Z,16.90
2018-04-13T12:45:07.934Z,16.70
2018-04-13T12:46:07.947Z,16.70
2018-04-13T12:47:07.948Z,17.10
2018-04-13T12:48:07.961Z,18.00
2018-04-13T12:49:07.963Z,17.30
2018-04-13T12:50:07.964Z,18.20
2018-04-13T12:51:07.980Z,17.30